Аэропорт: Ленкорань. Ленкорань

ICAO: UBBL

METAR:
2018/07/16 20:00
UBBL 162000Z 06011KT 9999 -TSRA SCT045 BKN048 28/22 Q1005 R33/CLRD// NOSIG RMK MT OP
METAR:
2018/07/16 20:00
TAF 
      AMD UBBL 162001Z 1620/1718 06006KT 9999 SCT030 FEW050CB BKN100 TX34/1711Z TN23/1702Z 
      TEMPO 1620/1706 VRB04KT 5000 -TSRA SCT010 SCT040CB BKN070 
      BECMG 1706/1708 12008KT